sensor_id;sensor_type;location;lat;lon;timestamp;P1;durP1;ratioP1;P2;durP2;ratioP2
61617;SDS011;47518;51.776;9.370;2023-05-16T00:02:12;15.18;;;13.52;;
61617;SDS011;47518;51.776;9.370;2023-05-16T00:04:37;16.88;;;14.27;;
61617;SDS011;47518;51.776;9.370;2023-05-16T00:07:03;14.80;;;13.25;;
61617;SDS011;47518;51.776;9.370;2023-05-16T00:09:31;14.63;;;13.10;;
61617;SDS011;47518;51.776;9.370;2023-05-16T00:11:57;18.25;;;14.65;;
61617;SDS011;47518;51.776;9.370;2023-05-16T00:14:27;16.08;;;14.43;;
61617;SDS011;47518;51.776;9.370;2023-05-16T00:16:52;19.10;;;14.05;;
61617;SDS011;47518;51.776;9.370;2023-05-16T00:19:18;15.60;;;13.95;;
61617;SDS011;47518;51.776;9.370;2023-05-16T00:21:44;15.57;;;12.68;;
61617;SDS011;47518;51.776;9.370;2023-05-16T00:24:12;15.27;;;13.68;;
61617;SDS011;47518;51.776;9.370;2023-05-16T00:26:38;14.75;;;12.52;;
61617;SDS011;47518;51.776;9.370;2023-05-16T00:29:03;19.45;;;14.05;;
61617;SDS011;47518;51.776;9.370;2023-05-16T00:31:28;14.88;;;13.38;;
61617;SDS011;47518;51.776;9.370;2023-05-16T00:33:53;14.88;;;13.30;;
61617;SDS011;47518;51.776;9.370;2023-05-16T00:36:19;15.65;;;14.05;;
61617;SDS011;47518;51.776;9.370;2023-05-16T00:38:45;16.58;;;13.60;;
61617;SDS011;47518;51.776;9.370;2023-05-16T00:41:11;16.17;;;14.23;;
61617;SDS011;47518;51.776;9.370;2023-05-16T00:43:36;15.23;;;13.60;;
61617;SDS011;47518;51.776;9.370;2023-05-16T00:46:03;14.65;;;13.07;;
61617;SDS011;47518;51.776;9.370;2023-05-16T00:48:29;14.45;;;13.00;;
61617;SDS011;47518;51.776;9.370;2023-05-16T00:50:54;15.38;;;13.77;;
61617;SDS011;47518;51.776;9.370;2023-05-16T00:53:20;15.77;;;14.05;;
61617;SDS011;47518;51.776;9.370;2023-05-16T00:55:46;15.20;;;13.60;;
61617;SDS011;47518;51.776;9.370;2023-05-16T00:58:11;14.73;;;13.23;;
61617;SDS011;47518;51.776;9.370;2023-05-16T01:00:37;18.27;;;13.75;;
61617;SDS011;47518;51.776;9.370;2023-05-16T01:03:04;18.05;;;14.07;;
61617;SDS011;47518;51.776;9.370;2023-05-16T01:05:30;16.88;;;13.20;;
61617;SDS011;47518;51.776;9.370;2023-05-16T01:07:56;16.83;;;14.50;;
61617;SDS011;47518;51.776;9.370;2023-05-16T01:10:21;20.75;;;14.30;;
61617;SDS011;47518;51.776;9.370;2023-05-16T01:12:55;19.08;;;16.42;;
61617;SDS011;47518;51.776;9.370;2023-05-16T01:15:29;19.70;;;15.85;;
61617;SDS011;47518;51.776;9.370;2023-05-16T01:31:07;15.05;;;13.50;;
61617;SDS011;47518;51.776;9.370;2023-05-16T01:33:33;16.73;;;13.30;;
61617;SDS011;47518;51.776;9.370;2023-05-16T01:36:01;15.75;;;12.52;;
61617;SDS011;47518;51.776;9.370;2023-05-16T01:38:38;14.23;;;12.27;;
61617;SDS011;47518;51.776;9.370;2023-05-16T01:41:26;12.73;;;11.40;;
61617;SDS011;47518;51.776;9.370;2023-05-16T01:44:06;12.70;;;10.77;;
61617;SDS011;47518;51.776;9.370;2023-05-16T01:46:40;11.93;;;10.68;;
61617;SDS011;47518;51.776;9.370;2023-05-16T01:49:14;11.60;;;10.48;;
61617;SDS011;47518;51.776;9.370;2023-05-16T01:51:46;11.77;;;10.60;;
61617;SDS011;47518;51.776;9.370;2023-05-16T01:54:16;12.63;;;10.63;;
61617;SDS011;47518;51.776;9.370;2023-05-16T01:56:49;13.40;;;10.10;;
61617;SDS011;47518;51.776;9.370;2023-05-16T01:59:18;12.70;;;10.57;;
61617;SDS011;47518;51.776;9.370;2023-05-16T02:01:45;13.43;;;10.65;;
61617;SDS011;47518;51.776;9.370;2023-05-16T02:04:11;13.68;;;10.75;;
61617;SDS011;47518;51.776;9.370;2023-05-16T02:06:37;13.20;;;10.20;;
61617;SDS011;47518;51.776;9.370;2023-05-16T02:09:06;12.80;;;10.93;;
61617;SDS011;47518;51.776;9.370;2023-05-16T02:11:31;12.18;;;10.55;;
61617;SDS011;47518;51.776;9.370;2023-05-16T02:13:56;14.07;;;10.60;;
61617;SDS011;47518;51.776;9.370;2023-05-16T02:16:22;12.10;;;10.80;;
61617;SDS011;47518;51.776;9.370;2023-05-16T02:18:47;14.57;;;10.18;;
61617;SDS011;47518;51.776;9.370;2023-05-16T02:21:16;11.13;;;9.90;;
61617;SDS011;47518;51.776;9.370;2023-05-16T02:23:42;11.52;;;9.85;;
61617;SDS011;47518;51.776;9.370;2023-05-16T02:26:07;11.70;;;9.80;;
61617;SDS011;47518;51.776;9.370;2023-05-16T02:28:32;10.80;;;9.13;;
61617;SDS011;47518;51.776;9.370;2023-05-16T02:30:58;12.60;;;9.32;;
61617;SDS011;47518;51.776;9.370;2023-05-16T02:33:25;11.27;;;8.98;;
61617;SDS011;47518;51.776;9.370;2023-05-16T02:35:51;10.45;;;8.90;;
61617;SDS011;47518;51.776;9.370;2023-05-16T02:38:17;10.75;;;9.18;;
61617;SDS011;47518;51.776;9.370;2023-05-16T02:40:44;10.02;;;9.02;;
61617;SDS011;47518;51.776;9.370;2023-05-16T02:43:10;9.20;;;8.20;;
61617;SDS011;47518;51.776;9.370;2023-05-16T02:45:41;10.38;;;9.10;;
61617;SDS011;47518;51.776;9.370;2023-05-16T02:48:07;9.60;;;8.07;;
61617;SDS011;47518;51.776;9.370;2023-05-16T02:50:32;9.07;;;8.02;;
61617;SDS011;47518;51.776;9.370;2023-05-16T02:52:58;9.10;;;8.20;;
61617;SDS011;47518;51.776;9.370;2023-05-16T02:55:29;9.52;;;8.00;;
61617;SDS011;47518;51.776;9.370;2023-05-16T02:58:00;9.50;;;7.78;;
61617;SDS011;47518;51.776;9.370;2023-05-16T03:00:25;8.68;;;7.53;;
61617;SDS011;47518;51.776;9.370;2023-05-16T03:02:51;8.98;;;7.63;;
61617;SDS011;47518;51.776;9.370;2023-05-16T03:05:16;10.57;;;7.53;;
61617;SDS011;47518;51.776;9.370;2023-05-16T03:07:48;8.30;;;7.40;;
61617;SDS011;47518;51.776;9.370;2023-05-16T03:10:13;9.10;;;8.02;;
61617;SDS011;47518;51.776;9.370;2023-05-16T03:12:38;8.52;;;7.07;;
61617;SDS011;47518;51.776;9.370;2023-05-16T03:15:07;7.88;;;7.07;;
61617;SDS011;47518;51.776;9.370;2023-05-16T03:17:33;10.30;;;7.35;;
61617;SDS011;47518;51.776;9.370;2023-05-16T03:19:59;13.02;;;7.53;;
61617;SDS011;47518;51.776;9.370;2023-05-16T03:22:24;8.63;;;7.18;;
61617;SDS011;47518;51.776;9.370;2023-05-16T03:24:49;9.73;;;7.55;;
61617;SDS011;47518;51.776;9.370;2023-05-16T03:27:15;7.70;;;7.07;;
61617;SDS011;47518;51.776;9.370;2023-05-16T03:29:40;13.30;;;7.57;;
61617;SDS011;47518;51.776;9.370;2023-05-16T03:32:05;8.63;;;7.15;;
61617;SDS011;47518;51.776;9.370;2023-05-16T03:34:31;9.68;;;6.80;;
61617;SDS011;47518;51.776;9.370;2023-05-16T03:37:02;7.70;;;6.90;;
61617;SDS011;47518;51.776;9.370;2023-05-16T03:39:28;7.35;;;6.65;;
61617;SDS011;47518;51.776;9.370;2023-05-16T03:41:53;8.43;;;6.15;;
61617;SDS011;47518;51.776;9.370;2023-05-16T03:44:21;6.10;;;5.60;;
61617;SDS011;47518;51.776;9.370;2023-05-16T03:46:46;7.20;;;6.07;;
61617;SDS011;47518;51.776;9.370;2023-05-16T03:49:11;6.85;;;6.15;;
61617;SDS011;47518;51.776;9.370;2023-05-16T03:51:37;7.13;;;6.40;;
61617;SDS011;47518;51.776;9.370;2023-05-16T03:54:02;7.55;;;5.65;;
61617;SDS011;47518;51.776;9.370;2023-05-16T03:56:28;6.25;;;5.75;;
61617;SDS011;47518;51.776;9.370;2023-05-16T03:58:53;6.78;;;5.78;;
61617;SDS011;47518;51.776;9.370;2023-05-16T04:01:18;6.75;;;5.80;;
61617;SDS011;47518;51.776;9.370;2023-05-16T04:03:44;6.00;;;5.50;;
61617;SDS011;47518;51.776;9.370;2023-05-16T04:06:09;7.22;;;5.53;;
61617;SDS011;47518;51.776;9.370;2023-05-16T04:08:34;6.10;;;5.50;;
61617;SDS011;47518;51.776;9.370;2023-05-16T04:11:00;7.70;;;5.80;;
61617;SDS011;47518;51.776;9.370;2023-05-16T04:13:25;6.30;;;5.70;;
61617;SDS011;47518;51.776;9.370;2023-05-16T04:15:50;6.13;;;5.63;;
61617;SDS011;47518;51.776;9.370;2023-05-16T04:18:19;6.85;;;5.32;;
61617;SDS011;47518;51.776;9.370;2023-05-16T04:20:44;8.25;;;5.70;;
61617;SDS011;47518;51.776;9.370;2023-05-16T04:23:11;6.05;;;5.50;;
61617;SDS011;47518;51.776;9.370;2023-05-16T04:25:37;7.38;;;5.22;;
61617;SDS011;47518;51.776;9.370;2023-05-16T04:28:02;6.38;;;4.80;;
61617;SDS011;47518;51.776;9.370;2023-05-16T04:30:30;7.38;;;5.25;;
61617;SDS011;47518;51.776;9.370;2023-05-16T04:32:56;6.63;;;4.60;;
61617;SDS011;47518;51.776;9.370;2023-05-16T04:35:23;9.38;;;5.07;;
61617;SDS011;47518;51.776;9.370;2023-05-16T04:37:52;7.50;;;4.78;;
61617;SDS011;47518;51.776;9.370;2023-05-16T04:40:17;5.40;;;4.50;;
61617;SDS011;47518;51.776;9.370;2023-05-16T04:42:46;5.43;;;4.47;;
61617;SDS011;47518;51.776;9.370;2023-05-16T04:45:14;4.60;;;4.00;;
61617;SDS011;47518;51.776;9.370;2023-05-16T04:47:40;8.02;;;4.75;;
61617;SDS011;47518;51.776;9.370;2023-05-16T04:50:06;10.93;;;4.57;;
61617;SDS011;47518;51.776;9.370;2023-05-16T04:52:36;5.80;;;4.45;;
61617;SDS011;47518;51.776;9.370;2023-05-16T04:55:02;8.27;;;3.95;;
61617;SDS011;47518;51.776;9.370;2023-05-16T04:57:28;6.85;;;4.30;;
61617;SDS011;47518;51.776;9.370;2023-05-16T04:59:53;10.18;;;4.63;;
61617;SDS011;47518;51.776;9.370;2023-05-16T05:02:19;6.32;;;4.00;;
61617;SDS011;47518;51.776;9.370;2023-05-16T05:07:39;5.30;;;3.67;;
61617;SDS011;47518;51.776;9.370;2023-05-16T05:10:04;8.75;;;3.50;;
61617;SDS011;47518;51.776;9.370;2023-05-16T05:12:31;8.23;;;3.60;;
61617;SDS011;47518;51.776;9.370;2023-05-16T05:14:57;10.68;;;3.63;;
61617;SDS011;47518;51.776;9.370;2023-05-16T05:17:28;5.22;;;3.50;;
61617;SDS011;47518;51.776;9.370;2023-05-16T05:20:04;11.38;;;3.60;;
61617;SDS011;47518;51.776;9.370;2023-05-16T05:22:32;4.53;;;3.30;;
61617;SDS011;47518;51.776;9.370;2023-05-16T05:24:58;4.90;;;3.25;;
61617;SDS011;47518;51.776;9.370;2023-05-16T05:27:23;11.43;;;3.80;;
61617;SDS011;47518;51.776;9.370;2023-05-16T05:29:55;7.63;;;3.67;;
61617;SDS011;47518;51.776;9.370;2023-05-16T05:32:41;5.10;;;3.10;;
61617;SDS011;47518;51.776;9.370;2023-05-16T05:35:09;5.20;;;3.20;;
61617;SDS011;47518;51.776;9.370;2023-05-16T05:37:48;5.93;;;3.40;;
61617;SDS011;47518;51.776;9.370;2023-05-16T05:40:14;7.80;;;3.35;;
61617;SDS011;47518;51.776;9.370;2023-05-16T05:42:40;9.75;;;3.70;;
61617;SDS011;47518;51.776;9.370;2023-05-16T05:45:05;8.13;;;3.85;;
61617;SDS011;47518;51.776;9.370;2023-05-16T05:47:31;8.55;;;3.30;;
61617;SDS011;47518;51.776;9.370;2023-05-16T05:49:57;7.55;;;3.15;;
61617;SDS011;47518;51.776;9.370;2023-05-16T05:52:23;7.82;;;3.33;;
61617;SDS011;47518;51.776;9.370;2023-05-16T05:54:48;6.63;;;3.30;;
61617;SDS011;47518;51.776;9.370;2023-05-16T05:57:14;10.23;;;3.65;;
61617;SDS011;47518;51.776;9.370;2023-05-16T05:59:39;6.93;;;3.45;;
61617;SDS011;47518;51.776;9.370;2023-05-16T06:02:05;7.20;;;3.60;;
61617;SDS011;47518;51.776;9.370;2023-05-16T06:04:31;10.73;;;4.18;;
61617;SDS011;47518;51.776;9.370;2023-05-16T06:06:57;10.88;;;3.90;;
61617;SDS011;47518;51.776;9.370;2023-05-16T06:09:22;10.27;;;4.15;;
61617;SDS011;47518;51.776;9.370;2023-05-16T06:25:13;16.20;;;4.45;;
61617;SDS011;47518;51.776;9.370;2023-05-16T06:27:39;12.13;;;4.05;;
61617;SDS011;47518;51.776;9.370;2023-05-16T06:30:05;9.13;;;3.85;;
61617;SDS011;47518;51.776;9.370;2023-05-16T06:32:31;12.35;;;3.90;;
61617;SDS011;47518;51.776;9.370;2023-05-16T06:34:56;17.02;;;4.53;;
61617;SDS011;47518;51.776;9.370;2023-05-16T06:37:22;10.05;;;4.50;;
61617;SDS011;47518;51.776;9.370;2023-05-16T06:39:50;9.00;;;3.85;;
61617;SDS011;47518;51.776;9.370;2023-05-16T06:42:19;13.20;;;3.97;;
61617;SDS011;47518;51.776;9.370;2023-05-16T06:44:45;13.00;;;4.05;;
61617;SDS011;47518;51.776;9.370;2023-05-16T06:47:11;9.98;;;3.70;;
61617;SDS011;47518;51.776;9.370;2023-05-16T06:49:39;11.95;;;3.53;;
61617;SDS011;47518;51.776;9.370;2023-05-16T06:52:04;9.40;;;3.33;;
61617;SDS011;47518;51.776;9.370;2023-05-16T06:54:34;9.82;;;3.05;;
61617;SDS011;47518;51.776;9.370;2023-05-16T06:57:00;12.75;;;3.72;;
61617;SDS011;47518;51.776;9.370;2023-05-16T06:59:27;11.65;;;3.25;;
61617;SDS011;47518;51.776;9.370;2023-05-16T07:01:53;10.73;;;3.30;;
61617;SDS011;47518;51.776;9.370;2023-05-16T07:04:29;9.93;;;3.50;;
61617;SDS011;47518;51.776;9.370;2023-05-16T07:06:54;10.85;;;3.47;;
61617;SDS011;47518;51.776;9.370;2023-05-16T07:09:20;7.57;;;3.22;;
61617;SDS011;47518;51.776;9.370;2023-05-16T07:11:45;10.70;;;2.97;;
61617;SDS011;47518;51.776;9.370;2023-05-16T07:14:11;11.43;;;3.10;;
61617;SDS011;47518;51.776;9.370;2023-05-16T07:16:39;6.32;;;2.80;;
61617;SDS011;47518;51.776;9.370;2023-05-16T07:19:05;9.30;;;3.28;;
61617;SDS011;47518;51.776;9.370;2023-05-16T07:21:30;6.55;;;2.88;;
61617;SDS011;47518;51.776;9.370;2023-05-16T07:23:56;10.38;;;3.03;;
61617;SDS011;47518;51.776;9.370;2023-05-16T07:26:21;11.48;;;3.90;;
61617;SDS011;47518;51.776;9.370;2023-05-16T07:28:56;8.93;;;3.22;;
61617;SDS011;47518;51.776;9.370;2023-05-16T07:31:22;9.27;;;3.30;;
61617;SDS011;47518;51.776;9.370;2023-05-16T07:33:52;11.23;;;3.33;;
61617;SDS011;47518;51.776;9.370;2023-05-16T07:36:23;7.57;;;3.28;;
61617;SDS011;47518;51.776;9.370;2023-05-16T07:38:48;8.23;;;2.92;;
61617;SDS011;47518;51.776;9.370;2023-05-16T07:41:16;9.55;;;2.90;;
61617;SDS011;47518;51.776;9.370;2023-05-16T07:43:42;6.68;;;2.88;;
61617;SDS011;47518;51.776;9.370;2023-05-16T07:46:07;9.07;;;3.60;;
61617;SDS011;47518;51.776;9.370;2023-05-16T07:48:33;10.18;;;2.90;;
61617;SDS011;47518;51.776;9.370;2023-05-16T07:51:02;10.45;;;3.00;;
61617;SDS011;47518;51.776;9.370;2023-05-16T07:53:31;8.82;;;2.45;;
61617;SDS011;47518;51.776;9.370;2023-05-16T07:55:56;7.43;;;2.80;;
61617;SDS011;47518;51.776;9.370;2023-05-16T07:58:21;8.55;;;3.13;;
61617;SDS011;47518;51.776;9.370;2023-05-16T08:00:47;8.98;;;3.33;;
61617;SDS011;47518;51.776;9.370;2023-05-16T08:03:16;7.55;;;3.08;;
61617;SDS011;47518;51.776;9.370;2023-05-16T08:05:44;9.57;;;3.00;;
61617;SDS011;47518;51.776;9.370;2023-05-16T08:08:10;8.18;;;2.65;;
61617;SDS011;47518;51.776;9.370;2023-05-16T08:10:35;6.95;;;2.80;;
61617;SDS011;47518;51.776;9.370;2023-05-16T08:13:01;11.32;;;3.17;;
61617;SDS011;47518;51.776;9.370;2023-05-16T08:15:26;7.45;;;3.03;;
61617;SDS011;47518;51.776;9.370;2023-05-16T08:17:55;7.32;;;2.63;;
61617;SDS011;47518;51.776;9.370;2023-05-16T08:20:22;9.27;;;2.60;;
61617;SDS011;47518;51.776;9.370;2023-05-16T08:22:52;8.02;;;2.58;;
61617;SDS011;47518;51.776;9.370;2023-05-16T08:25:18;9.98;;;2.70;;
61617;SDS011;47518;51.776;9.370;2023-05-16T08:27:45;8.27;;;2.85;;
61617;SDS011;47518;51.776;9.370;2023-05-16T08:30:14;5.10;;;2.42;;
61617;SDS011;47518;51.776;9.370;2023-05-16T08:32:40;6.93;;;2.55;;
61617;SDS011;47518;51.776;9.370;2023-05-16T08:35:05;5.97;;;2.60;;
61617;SDS011;47518;51.776;9.370;2023-05-16T08:37:31;5.90;;;2.30;;
61617;SDS011;47518;51.776;9.370;2023-05-16T08:39:57;4.82;;;2.20;;
61617;SDS011;47518;51.776;9.370;2023-05-16T08:42:31;6.82;;;2.30;;
61617;SDS011;47518;51.776;9.370;2023-05-16T08:44:58;5.68;;;2.17;;
61617;SDS011;47518;51.776;9.370;2023-05-16T08:47:23;6.25;;;2.30;;
61617;SDS011;47518;51.776;9.370;2023-05-16T08:49:54;6.22;;;2.40;;
61617;SDS011;47518;51.776;9.370;2023-05-16T08:52:26;8.65;;;2.53;;
61617;SDS011;47518;51.776;9.370;2023-05-16T08:55:02;8.15;;;2.40;;
61617;SDS011;47518;51.776;9.370;2023-05-16T08:57:32;6.20;;;2.45;;
61617;SDS011;47518;51.776;9.370;2023-05-16T09:00:08;7.93;;;2.45;;
61617;SDS011;47518;51.776;9.370;2023-05-16T09:02:41;7.57;;;2.63;;
61617;SDS011;47518;51.776;9.370;2023-05-16T09:07:06;11.55;;;2.97;;
61617;SDS011;47518;51.776;9.370;2023-05-16T09:08:18;5.72;;;2.50;;
61617;SDS011;47518;51.776;9.370;2023-05-16T09:11:04;7.10;;;2.20;;
61617;SDS011;47518;51.776;9.370;2023-05-16T09:13:29;7.50;;;2.50;;
61617;SDS011;47518;51.776;9.370;2023-05-16T09:16:17;8.05;;;2.30;;
61617;SDS011;47518;51.776;9.370;2023-05-16T09:18:45;8.00;;;2.65;;
61617;SDS011;47518;51.776;9.370;2023-05-16T09:21:20;8.50;;;2.70;;
61617;SDS011;47518;51.776;9.370;2023-05-16T09:23:47;6.07;;;2.33;;
61617;SDS011;47518;51.776;9.370;2023-05-16T09:26:14;7.53;;;2.53;;
61617;SDS011;47518;51.776;9.370;2023-05-16T09:28:43;7.25;;;2.33;;
61617;SDS011;47518;51.776;9.370;2023-05-16T09:31:20;5.45;;;2.60;;
61617;SDS011;47518;51.776;9.370;2023-05-16T09:33:46;5.45;;;2.72;;
61617;SDS011;47518;51.776;9.370;2023-05-16T09:36:14;6.43;;;2.30;;
61617;SDS011;47518;51.776;9.370;2023-05-16T09:38:46;4.82;;;2.10;;
61617;SDS011;47518;51.776;9.370;2023-05-16T09:41:16;5.82;;;2.22;;
61617;SDS011;47518;51.776;9.370;2023-05-16T09:43:44;5.10;;;2.20;;
61617;SDS011;47518;51.776;9.370;2023-05-16T09:46:11;6.40;;;2.65;;
61617;SDS011;47518;51.776;9.370;2023-05-16T09:48:41;7.07;;;2.70;;
61617;SDS011;47518;51.776;9.370;2023-05-16T09:51:10;7.47;;;2.58;;
61617;SDS011;47518;51.776;9.370;2023-05-16T09:53:36;6.05;;;2.25;;
61617;SDS011;47518;51.776;9.370;2023-05-16T09:56:04;7.65;;;2.55;;
61617;SDS011;47518;51.776;9.370;2023-05-16T09:58:35;3.65;;;2.25;;
61617;SDS011;47518;51.776;9.370;2023-05-16T10:01:02;5.45;;;2.60;;
61617;SDS011;47518;51.776;9.370;2023-05-16T10:03:28;7.43;;;2.42;;
61617;SDS011;47518;51.776;9.370;2023-05-16T10:05:58;4.18;;;2.03;;
61617;SDS011;47518;51.776;9.370;2023-05-16T10:08:40;6.63;;;2.63;;
61617;SDS011;47518;51.776;9.370;2023-05-16T10:11:07;5.00;;;2.05;;
61617;SDS011;47518;51.776;9.370;2023-05-16T10:13:34;6.35;;;2.35;;
61617;SDS011;47518;51.776;9.370;2023-05-16T10:16:01;2.22;;;2.03;;
61617;SDS011;47518;51.776;9.370;2023-05-16T10:18:35;4.50;;;2.30;;
61617;SDS011;47518;51.776;9.370;2023-05-16T10:21:11;3.72;;;2.28;;
61617;SDS011;47518;51.776;9.370;2023-05-16T10:23:40;5.63;;;2.20;;
61617;SDS011;47518;51.776;9.370;2023-05-16T10:26:07;4.53;;;2.25;;
61617;SDS011;47518;51.776;9.370;2023-05-16T10:28:34;7.30;;;2.58;;
61617;SDS011;47518;51.776;9.370;2023-05-16T10:31:00;6.57;;;2.17;;
61617;SDS011;47518;51.776;9.370;2023-05-16T10:33:27;5.03;;;2.05;;
61617;SDS011;47518;51.776;9.370;2023-05-16T10:35:55;4.45;;;2.30;;
61617;SDS011;47518;51.776;9.370;2023-05-16T10:38:21;5.57;;;2.38;;
61617;SDS011;47518;51.776;9.370;2023-05-16T10:40:48;2.95;;;2.05;;
61617;SDS011;47518;51.776;9.370;2023-05-16T10:43:22;5.47;;;2.28;;
61617;SDS011;47518;51.776;9.370;2023-05-16T10:45:53;4.60;;;2.10;;
61617;SDS011;47518;51.776;9.370;2023-05-16T10:48:27;5.93;;;2.60;;
61617;SDS011;47518;51.776;9.370;2023-05-16T10:50:54;6.25;;;2.38;;
61617;SDS011;47518;51.776;9.370;2023-05-16T10:53:21;4.45;;;2.30;;
61617;SDS011;47518;51.776;9.370;2023-05-16T10:56:05;4.72;;;2.40;;
61617;SDS011;47518;51.776;9.370;2023-05-16T11:04:05;5.40;;;2.53;;
61617;SDS011;47518;51.776;9.370;2023-05-16T11:06:34;7.63;;;2.40;;
61617;SDS011;47518;51.776;9.370;2023-05-16T11:14:35;3.80;;;2.25;;
61617;SDS011;47518;51.776;9.370;2023-05-16T11:19:44;6.95;;;2.03;;
61617;SDS011;47518;51.776;9.370;2023-05-16T11:22:22;4.95;;;2.20;;
61617;SDS011;47518;51.776;9.370;2023-05-16T11:25:05;4.38;;;2.20;;
61617;SDS011;47518;51.776;9.370;2023-05-16T11:27:34;5.30;;;2.08;;
61617;SDS011;47518;51.776;9.370;2023-05-16T11:32:45;3.83;;;2.20;;
61617;SDS011;47518;51.776;9.370;2023-05-16T11:35:25;4.78;;;2.47;;
61617;SDS011;47518;51.776;9.370;2023-05-16T11:38:12;4.20;;;2.45;;
61617;SDS011;47518;51.776;9.370;2023-05-16T11:40:43;3.47;;;2.88;;
61617;SDS011;47518;51.776;9.370;2023-05-16T11:43:09;5.15;;;2.40;;
61617;SDS011;47518;51.776;9.370;2023-05-16T11:45:35;3.50;;;2.10;;
61617;SDS011;47518;51.776;9.370;2023-05-16T11:48:04;5.97;;;1.98;;
61617;SDS011;47518;51.776;9.370;2023-05-16T11:50:33;5.20;;;2.25;;
61617;SDS011;47518;51.776;9.370;2023-05-16T11:52:59;7.13;;;2.25;;
61617;SDS011;47518;51.776;9.370;2023-05-16T11:55:46;3.28;;;2.00;;
61617;SDS011;47518;51.776;9.370;2023-05-16T11:58:19;3.95;;;2.38;;
61617;SDS011;47518;51.776;9.370;2023-05-16T12:00:47;4.63;;;2.50;;
61617;SDS011;47518;51.776;9.370;2023-05-16T12:03:16;4.05;;;2.20;;
61617;SDS011;47518;51.776;9.370;2023-05-16T12:05:52;2.30;;;2.10;;
61617;SDS011;47518;51.776;9.370;2023-05-16T12:08:21;3.63;;;2.30;;
61617;SDS011;47518;51.776;9.370;2023-05-16T12:10:48;2.53;;;2.20;;
61617;SDS011;47518;51.776;9.370;2023-05-16T12:13:19;3.30;;;2.28;;
61617;SDS011;47518;51.776;9.370;2023-05-16T12:18:21;4.40;;;2.40;;
61617;SDS011;47518;51.776;9.370;2023-05-16T12:20:48;3.67;;;2.40;;
61617;SDS011;47518;51.776;9.370;2023-05-16T12:23:13;2.10;;;2.00;;
61617;SDS011;47518;51.776;9.370;2023-05-16T12:25:44;5.30;;;2.40;;
61617;SDS011;47518;51.776;9.370;2023-05-16T12:28:11;4.47;;;2.25;;
61617;SDS011;47518;51.776;9.370;2023-05-16T12:30:39;5.82;;;2.40;;
61617;SDS011;47518;51.776;9.370;2023-05-16T12:33:10;5.93;;;2.75;;
61617;SDS011;47518;51.776;9.370;2023-05-16T12:35:37;4.22;;;2.60;;
61617;SDS011;47518;51.776;9.370;2023-05-16T12:38:04;8.85;;;2.50;;
61617;SDS011;47518;51.776;9.370;2023-05-16T12:40:31;5.57;;;2.50;;
61617;SDS011;47518;51.776;9.370;2023-05-16T12:43:00;2.63;;;2.38;;
61617;SDS011;47518;51.776;9.370;2023-05-16T12:45:29;3.40;;;2.40;;
61617;SDS011;47518;51.776;9.370;2023-05-16T12:47:54;6.38;;;2.50;;
61617;SDS011;47518;51.776;9.370;2023-05-16T12:50:21;5.38;;;2.58;;
61617;SDS011;47518;51.776;9.370;2023-05-16T12:52:47;4.38;;;2.42;;
61617;SDS011;47518;51.776;9.370;2023-05-16T12:55:18;5.88;;;2.65;;
61617;SDS011;47518;51.776;9.370;2023-05-16T12:57:48;8.27;;;2.63;;
61617;SDS011;47518;51.776;9.370;2023-05-16T13:00:15;4.25;;;2.47;;
61617;SDS011;47518;51.776;9.370;2023-05-16T13:02:43;3.47;;;2.13;;
61617;SDS011;47518;51.776;9.370;2023-05-16T13:05:12;4.28;;;2.70;;
61617;SDS011;47518;51.776;9.370;2023-05-16T13:07:41;4.55;;;2.40;;
61617;SDS011;47518;51.776;9.370;2023-05-16T13:10:08;6.00;;;2.50;;
61617;SDS011;47518;51.776;9.370;2023-05-16T13:12:35;4.40;;;2.42;;
61617;SDS011;47518;51.776;9.370;2023-05-16T13:15:03;4.22;;;2.33;;
61617;SDS011;47518;51.776;9.370;2023-05-16T13:17:29;3.92;;;2.35;;
61617;SDS011;47518;51.776;9.370;2023-05-16T13:19:54;6.22;;;2.10;;
61617;SDS011;47518;51.776;9.370;2023-05-16T13:22:20;3.38;;;2.00;;
61617;SDS011;47518;51.776;9.370;2023-05-16T13:24:45;4.03;;;2.20;;
61617;SDS011;47518;51.776;9.370;2023-05-16T13:27:14;3.47;;;2.15;;
61617;SDS011;47518;51.776;9.370;2023-05-16T13:29:40;2.40;;;2.20;;
61617;SDS011;47518;51.776;9.370;2023-05-16T13:32:06;4.65;;;2.40;;
61617;SDS011;47518;51.776;9.370;2023-05-16T13:34:31;3.08;;;2.00;;
61617;SDS011;47518;51.776;9.370;2023-05-16T13:36:57;2.53;;;1.92;;
61617;SDS011;47518;51.776;9.370;2023-05-16T13:39:23;2.78;;;2.10;;
61617;SDS011;47518;51.776;9.370;2023-05-16T13:41:48;4.72;;;2.30;;
61617;SDS011;47518;51.776;9.370;2023-05-16T13:44:14;3.28;;;2.25;;
61617;SDS011;47518;51.776;9.370;2023-05-16T13:46:40;4.13;;;2.03;;
61617;SDS011;47518;51.776;9.370;2023-05-16T13:49:05;4.65;;;2.13;;
61617;SDS011;47518;51.776;9.370;2023-05-16T13:51:31;4.53;;;2.20;;
61617;SDS011;47518;51.776;9.370;2023-05-16T13:53:56;4.20;;;2.30;;
61617;SDS011;47518;51.776;9.370;2023-05-16T13:56:21;4.22;;;1.92;;
61617;SDS011;47518;51.776;9.370;2023-05-16T13:58:47;2.88;;;2.10;;
61617;SDS011;47518;51.776;9.370;2023-05-16T14:01:14;4.25;;;2.20;;
61617;SDS011;47518;51.776;9.370;2023-05-16T14:03:39;2.60;;;2.03;;
61617;SDS011;47518;51.776;9.370;2023-05-16T14:06:04;6.57;;;2.33;;
61617;SDS011;47518;51.776;9.370;2023-05-16T14:08:30;4.90;;;2.58;;
61617;SDS011;47518;51.776;9.370;2023-05-16T14:10:55;2.85;;;2.20;;
61617;SDS011;47518;51.776;9.370;2023-05-16T14:13:20;2.75;;;2.17;;
61617;SDS011;47518;51.776;9.370;2023-05-16T14:15:46;5.03;;;2.40;;
61617;SDS011;47518;51.776;9.370;2023-05-16T14:18:11;3.65;;;2.00;;
61617;SDS011;47518;51.776;9.370;2023-05-16T14:20:38;2.83;;;2.10;;
61617;SDS011;47518;51.776;9.370;2023-05-16T14:23:03;6.30;;;2.28;;
61617;SDS011;47518;51.776;9.370;2023-05-16T14:25:28;3.63;;;2.08;;
61617;SDS011;47518;51.776;9.370;2023-05-16T14:27:54;4.97;;;2.35;;
61617;SDS011;47518;51.776;9.370;2023-05-16T14:30:19;3.90;;;2.20;;
61617;SDS011;47518;51.776;9.370;2023-05-16T14:32:44;9.95;;;2.22;;
61617;SDS011;47518;51.776;9.370;2023-05-16T14:35:10;4.07;;;2.40;;
61617;SDS011;47518;51.776;9.370;2023-05-16T14:37:35;3.15;;;2.40;;
61617;SDS011;47518;51.776;9.370;2023-05-16T14:40:01;2.42;;;2.15;;
61617;SDS011;47518;51.776;9.370;2023-05-16T14:42:26;4.45;;;2.40;;
61617;SDS011;47518;51.776;9.370;2023-05-16T14:44:52;4.15;;;2.20;;
61617;SDS011;47518;51.776;9.370;2023-05-16T14:47:17;7.38;;;2.15;;
61617;SDS011;47518;51.776;9.370;2023-05-16T14:49:42;5.05;;;2.30;;
61617;SDS011;47518;51.776;9.370;2023-05-16T14:52:08;4.63;;;1.88;;
61617;SDS011;47518;51.776;9.370;2023-05-16T14:54:33;5.35;;;2.10;;
61617;SDS011;47518;51.776;9.370;2023-05-16T14:56:59;2.67;;;2.08;;
61617;SDS011;47518;51.776;9.370;2023-05-16T14:59:25;4.15;;;2.25;;
61617;SDS011;47518;51.776;9.370;2023-05-16T15:01:51;7.45;;;2.10;;
61617;SDS011;47518;51.776;9.370;2023-05-16T15:04:16;4.32;;;2.10;;
61617;SDS011;47518;51.776;9.370;2023-05-16T15:06:41;4.47;;;2.00;;
61617;SDS011;47518;51.776;9.370;2023-05-16T15:09:07;3.40;;;2.28;;
61617;SDS011;47518;51.776;9.370;2023-05-16T15:11:32;4.28;;;2.00;;
61617;SDS011;47518;51.776;9.370;2023-05-16T15:13:57;5.47;;;1.90;;
61617;SDS011;47518;51.776;9.370;2023-05-16T15:16:23;4.40;;;2.10;;
61617;SDS011;47518;51.776;9.370;2023-05-16T15:18:48;4.30;;;1.90;;
61617;SDS011;47518;51.776;9.370;2023-05-16T15:21:13;3.92;;;2.10;;
61617;SDS011;47518;51.776;9.370;2023-05-16T15:23:39;2.10;;;1.85;;
61617;SDS011;47518;51.776;9.370;2023-05-16T15:26:04;3.50;;;2.00;;
61617;SDS011;47518;51.776;9.370;2023-05-16T15:28:30;3.72;;;1.83;;
61617;SDS011;47518;51.776;9.370;2023-05-16T15:30:56;2.58;;;2.00;;
61617;SDS011;47518;51.776;9.370;2023-05-16T15:33:22;5.05;;;2.00;;
61617;SDS011;47518;51.776;9.370;2023-05-16T15:35:47;4.07;;;2.58;;